sensor_id;sensor_type;location;lat;lon;timestamp;P1;durP1;ratioP1;P2;durP2;ratioP2
13849;SDS011;6995;52.618;13.488;2023-07-13T00:00:36;26.80;;;25.17;;
13849;SDS011;6995;52.618;13.488;2023-07-13T00:03:03;23.63;;;22.15;;
13849;SDS011;6995;52.618;13.488;2023-07-13T00:05:29;24.50;;;23.13;;
13849;SDS011;6995;52.618;13.488;2023-07-13T00:07:56;25.63;;;24.10;;
13849;SDS011;6995;52.618;13.488;2023-07-13T00:10:21;25.38;;;24.13;;
13849;SDS011;6995;52.618;13.488;2023-07-13T00:12:48;27.85;;;26.15;;
13849;SDS011;6995;52.618;13.488;2023-07-13T00:15:17;27.20;;;25.25;;
13849;SDS011;6995;52.618;13.488;2023-07-13T00:17:48;27.90;;;26.15;;
13849;SDS011;6995;52.618;13.488;2023-07-13T00:20:18;26.02;;;24.13;;
13849;SDS011;6995;52.618;13.488;2023-07-13T00:22:46;26.92;;;25.33;;
13849;SDS011;6995;52.618;13.488;2023-07-13T00:25:13;25.65;;;24.02;;
13849;SDS011;6995;52.618;13.488;2023-07-13T00:27:38;24.75;;;23.02;;
13849;SDS011;6995;52.618;13.488;2023-07-13T00:30:04;26.13;;;24.52;;
13849;SDS011;6995;52.618;13.488;2023-07-13T00:32:30;25.65;;;24.15;;
13849;SDS011;6995;52.618;13.488;2023-07-13T00:34:56;25.65;;;24.25;;
13849;SDS011;6995;52.618;13.488;2023-07-13T00:37:23;23.40;;;22.02;;
13849;SDS011;6995;52.618;13.488;2023-07-13T00:39:48;25.42;;;23.92;;
13849;SDS011;6995;52.618;13.488;2023-07-13T00:42:14;25.80;;;24.30;;
13849;SDS011;6995;52.618;13.488;2023-07-13T00:44:40;23.88;;;22.48;;
13849;SDS011;6995;52.618;13.488;2023-07-13T00:47:06;24.67;;;23.08;;
13849;SDS011;6995;52.618;13.488;2023-07-13T00:49:32;23.02;;;21.70;;
13849;SDS011;6995;52.618;13.488;2023-07-13T00:52:02;24.27;;;22.95;;
13849;SDS011;6995;52.618;13.488;2023-07-13T00:54:39;24.10;;;22.60;;
13849;SDS011;6995;52.618;13.488;2023-07-13T00:57:12;25.45;;;23.95;;
13849;SDS011;6995;52.618;13.488;2023-07-13T00:59:42;24.65;;;23.30;;
13849;SDS011;6995;52.618;13.488;2023-07-13T01:02:12;23.25;;;21.85;;
13849;SDS011;6995;52.618;13.488;2023-07-13T01:04:38;26.48;;;24.95;;
13849;SDS011;6995;52.618;13.488;2023-07-13T01:07:04;22.23;;;21.13;;
13849;SDS011;6995;52.618;13.488;2023-07-13T01:09:31;23.83;;;22.52;;
13849;SDS011;6995;52.618;13.488;2023-07-13T01:11:57;23.20;;;21.90;;
13849;SDS011;6995;52.618;13.488;2023-07-13T01:14:24;24.75;;;23.42;;
13849;SDS011;6995;52.618;13.488;2023-07-13T01:16:50;29.33;;;27.58;;
13849;SDS011;6995;52.618;13.488;2023-07-13T01:22:00;25.13;;;23.73;;
13849;SDS011;6995;52.618;13.488;2023-07-13T01:24:38;25.55;;;24.15;;
13849;SDS011;6995;52.618;13.488;2023-07-13T01:27:06;25.10;;;23.77;;
13849;SDS011;6995;52.618;13.488;2023-07-13T01:29:35;24.42;;;22.92;;
13849;SDS011;6995;52.618;13.488;2023-07-13T01:32:07;23.50;;;21.75;;
13849;SDS011;6995;52.618;13.488;2023-07-13T01:34:38;23.92;;;22.40;;
13849;SDS011;6995;52.618;13.488;2023-07-13T01:37:07;23.27;;;21.98;;
13849;SDS011;6995;52.618;13.488;2023-07-13T01:39:34;23.00;;;21.38;;
13849;SDS011;6995;52.618;13.488;2023-07-13T01:42:00;23.33;;;22.13;;
13849;SDS011;6995;52.618;13.488;2023-07-13T01:44:26;24.10;;;22.70;;
13849;SDS011;6995;52.618;13.488;2023-07-13T01:46:52;23.52;;;22.23;;
13849;SDS011;6995;52.618;13.488;2023-07-13T01:49:18;23.15;;;21.75;;
13849;SDS011;6995;52.618;13.488;2023-07-13T01:51:43;24.98;;;23.27;;
13849;SDS011;6995;52.618;13.488;2023-07-13T01:54:09;23.95;;;22.52;;
13849;SDS011;6995;52.618;13.488;2023-07-13T01:56:35;23.30;;;22.10;;
13849;SDS011;6995;52.618;13.488;2023-07-13T01:59:00;22.17;;;20.75;;
13849;SDS011;6995;52.618;13.488;2023-07-13T02:01:26;23.67;;;22.23;;
13849;SDS011;6995;52.618;13.488;2023-07-13T02:03:51;22.27;;;20.67;;
13849;SDS011;6995;52.618;13.488;2023-07-13T02:06:17;22.02;;;20.52;;
13849;SDS011;6995;52.618;13.488;2023-07-13T02:08:43;21.08;;;19.98;;
13849;SDS011;6995;52.618;13.488;2023-07-13T02:11:08;21.05;;;19.90;;
13849;SDS011;6995;52.618;13.488;2023-07-13T02:13:34;22.15;;;20.75;;
13849;SDS011;6995;52.618;13.488;2023-07-13T02:16:03;22.85;;;21.52;;
13849;SDS011;6995;52.618;13.488;2023-07-13T02:18:31;23.63;;;22.13;;
13849;SDS011;6995;52.618;13.488;2023-07-13T02:20:57;21.30;;;20.27;;
13849;SDS011;6995;52.618;13.488;2023-07-13T02:23:23;24.88;;;23.25;;
13849;SDS011;6995;52.618;13.488;2023-07-13T02:25:48;25.75;;;24.10;;
13849;SDS011;6995;52.618;13.488;2023-07-13T02:28:14;24.83;;;23.35;;
13849;SDS011;6995;52.618;13.488;2023-07-13T02:30:40;25.60;;;24.08;;
13849;SDS011;6995;52.618;13.488;2023-07-13T02:33:06;24.52;;;23.15;;
13849;SDS011;6995;52.618;13.488;2023-07-13T02:35:31;21.98;;;20.73;;
13849;SDS011;6995;52.618;13.488;2023-07-13T02:37:57;21.88;;;20.65;;
13849;SDS011;6995;52.618;13.488;2023-07-13T02:40:23;27.10;;;25.40;;
13849;SDS011;6995;52.618;13.488;2023-07-13T02:42:48;27.23;;;25.42;;
13849;SDS011;6995;52.618;13.488;2023-07-13T02:45:14;25.98;;;24.48;;
13849;SDS011;6995;52.618;13.488;2023-07-13T02:47:40;24.63;;;23.10;;
13849;SDS011;6995;52.618;13.488;2023-07-13T02:50:06;28.63;;;26.92;;
13849;SDS011;6995;52.618;13.488;2023-07-13T02:52:33;27.95;;;26.00;;
13849;SDS011;6995;52.618;13.488;2023-07-13T02:54:58;29.48;;;27.73;;
13849;SDS011;6995;52.618;13.488;2023-07-13T02:57:27;26.55;;;24.92;;
13849;SDS011;6995;52.618;13.488;2023-07-13T02:59:53;28.80;;;27.05;;
13849;SDS011;6995;52.618;13.488;2023-07-13T03:02:19;28.73;;;27.17;;
13849;SDS011;6995;52.618;13.488;2023-07-13T03:04:45;29.17;;;27.40;;
13849;SDS011;6995;52.618;13.488;2023-07-13T03:07:11;28.13;;;26.52;;
13849;SDS011;6995;52.618;13.488;2023-07-13T03:09:36;26.88;;;25.13;;
13849;SDS011;6995;52.618;13.488;2023-07-13T03:12:02;27.45;;;25.95;;
13849;SDS011;6995;52.618;13.488;2023-07-13T03:14:28;29.27;;;27.73;;
13849;SDS011;6995;52.618;13.488;2023-07-13T03:16:53;27.15;;;25.60;;
13849;SDS011;6995;52.618;13.488;2023-07-13T03:19:19;32.50;;;30.45;;
13849;SDS011;6995;52.618;13.488;2023-07-13T03:21:45;29.10;;;27.30;;
13849;SDS011;6995;52.618;13.488;2023-07-13T03:24:11;24.33;;;22.92;;
13849;SDS011;6995;52.618;13.488;2023-07-13T03:26:38;26.92;;;25.42;;
13849;SDS011;6995;52.618;13.488;2023-07-13T03:29:04;27.70;;;25.73;;
13849;SDS011;6995;52.618;13.488;2023-07-13T03:31:32;29.73;;;28.08;;
13849;SDS011;6995;52.618;13.488;2023-07-13T03:34:00;29.42;;;27.52;;
13849;SDS011;6995;52.618;13.488;2023-07-13T03:36:27;36.78;;;34.88;;
13849;SDS011;6995;52.618;13.488;2023-07-13T03:38:58;36.63;;;34.63;;
13849;SDS011;6995;52.618;13.488;2023-07-13T03:41:26;46.38;;;44.00;;
13849;SDS011;6995;52.618;13.488;2023-07-13T03:43:52;46.67;;;44.13;;
13849;SDS011;6995;52.618;13.488;2023-07-13T03:46:18;89.15;;;84.40;;
13849;SDS011;6995;52.618;13.488;2023-07-13T03:48:45;47.90;;;45.05;;
13849;SDS011;6995;52.618;13.488;2023-07-13T03:51:12;42.97;;;40.63;;
13849;SDS011;6995;52.618;13.488;2023-07-13T03:53:40;38.60;;;36.58;;
13849;SDS011;6995;52.618;13.488;2023-07-13T03:56:07;37.70;;;35.60;;
13849;SDS011;6995;52.618;13.488;2023-07-13T03:58:34;39.97;;;37.60;;
13849;SDS011;6995;52.618;13.488;2023-07-13T04:01:03;31.10;;;29.40;;
13849;SDS011;6995;52.618;13.488;2023-07-13T04:03:30;37.70;;;35.40;;
13849;SDS011;6995;52.618;13.488;2023-07-13T04:06:01;33.42;;;31.38;;
13849;SDS011;6995;52.618;13.488;2023-07-13T04:08:29;33.83;;;31.85;;
13849;SDS011;6995;52.618;13.488;2023-07-13T04:10:56;40.88;;;38.42;;
13849;SDS011;6995;52.618;13.488;2023-07-13T04:13:23;37.60;;;35.55;;
13849;SDS011;6995;52.618;13.488;2023-07-13T04:15:49;38.30;;;36.13;;
13849;SDS011;6995;52.618;13.488;2023-07-13T04:18:15;31.92;;;30.02;;
13849;SDS011;6995;52.618;13.488;2023-07-13T04:20:41;29.25;;;27.35;;
13849;SDS011;6995;52.618;13.488;2023-07-13T04:23:07;27.77;;;26.08;;
13849;SDS011;6995;52.618;13.488;2023-07-13T04:25:33;27.05;;;25.23;;
13849;SDS011;6995;52.618;13.488;2023-07-13T04:27:58;26.90;;;25.10;;
13849;SDS011;6995;52.618;13.488;2023-07-13T04:30:24;24.88;;;23.30;;
13849;SDS011;6995;52.618;13.488;2023-07-13T04:32:51;26.52;;;24.90;;
13849;SDS011;6995;52.618;13.488;2023-07-13T04:35:17;27.55;;;25.88;;
13849;SDS011;6995;52.618;13.488;2023-07-13T04:37:50;28.92;;;26.70;;
13849;SDS011;6995;52.618;13.488;2023-07-13T04:40:16;29.33;;;27.10;;
13849;SDS011;6995;52.618;13.488;2023-07-13T04:43:57;25.40;;;23.70;;
13849;SDS011;6995;52.618;13.488;2023-07-13T04:46:22;29.95;;;28.13;;
13849;SDS011;6995;52.618;13.488;2023-07-13T04:48:48;25.40;;;23.90;;
13849;SDS011;6995;52.618;13.488;2023-07-13T04:51:15;23.88;;;22.58;;
13849;SDS011;6995;52.618;13.488;2023-07-13T04:53:41;29.70;;;27.88;;
13849;SDS011;6995;52.618;13.488;2023-07-13T04:56:07;28.85;;;26.98;;
13849;SDS011;6995;52.618;13.488;2023-07-13T04:58:33;30.13;;;28.42;;
13849;SDS011;6995;52.618;13.488;2023-07-13T05:00:59;28.88;;;27.30;;
13849;SDS011;6995;52.618;13.488;2023-07-13T05:03:28;27.42;;;25.73;;
13849;SDS011;6995;52.618;13.488;2023-07-13T05:05:55;29.85;;;28.05;;
13849;SDS011;6995;52.618;13.488;2023-07-13T05:08:22;27.77;;;26.23;;
13849;SDS011;6995;52.618;13.488;2023-07-13T05:10:48;26.63;;;24.95;;
13849;SDS011;6995;52.618;13.488;2023-07-13T05:13:13;26.85;;;25.13;;
13849;SDS011;6995;52.618;13.488;2023-07-13T05:15:39;26.58;;;24.55;;
13849;SDS011;6995;52.618;13.488;2023-07-13T05:18:04;26.80;;;24.75;;
13849;SDS011;6995;52.618;13.488;2023-07-13T05:20:30;25.50;;;23.70;;
13849;SDS011;6995;52.618;13.488;2023-07-13T05:22:56;25.05;;;23.45;;
13849;SDS011;6995;52.618;13.488;2023-07-13T05:25:21;23.15;;;21.58;;
13849;SDS011;6995;52.618;13.488;2023-07-13T05:27:47;22.55;;;21.08;;
13849;SDS011;6995;52.618;13.488;2023-07-13T05:30:13;31.70;;;29.40;;
13849;SDS011;6995;52.618;13.488;2023-07-13T05:32:39;24.05;;;22.58;;
13849;SDS011;6995;52.618;13.488;2023-07-13T05:35:07;25.80;;;23.98;;
13849;SDS011;6995;52.618;13.488;2023-07-13T05:37:34;26.80;;;24.92;;
13849;SDS011;6995;52.618;13.488;2023-07-13T05:40:00;27.63;;;25.58;;
13849;SDS011;6995;52.618;13.488;2023-07-13T05:42:25;25.35;;;23.70;;
13849;SDS011;6995;52.618;13.488;2023-07-13T05:44:51;23.40;;;21.77;;
13849;SDS011;6995;52.618;13.488;2023-07-13T05:47:17;22.65;;;21.15;;
13849;SDS011;6995;52.618;13.488;2023-07-13T05:49:42;23.20;;;21.73;;
13849;SDS011;6995;52.618;13.488;2023-07-13T05:52:08;23.50;;;21.98;;
13849;SDS011;6995;52.618;13.488;2023-07-13T05:54:34;23.73;;;22.27;;
13849;SDS011;6995;52.618;13.488;2023-07-13T05:56:59;20.77;;;19.67;;
13849;SDS011;6995;52.618;13.488;2023-07-13T05:59:25;23.35;;;21.88;;
13849;SDS011;6995;52.618;13.488;2023-07-13T06:01:51;23.95;;;22.13;;
13849;SDS011;6995;52.618;13.488;2023-07-13T06:04:17;21.33;;;20.13;;
13849;SDS011;6995;52.618;13.488;2023-07-13T06:06:43;24.10;;;22.58;;
13849;SDS011;6995;52.618;13.488;2023-07-13T06:09:09;22.95;;;21.35;;
13849;SDS011;6995;52.618;13.488;2023-07-13T06:11:35;24.35;;;22.88;;
13849;SDS011;6995;52.618;13.488;2023-07-13T06:14:01;28.00;;;26.20;;
13849;SDS011;6995;52.618;13.488;2023-07-13T06:16:26;27.25;;;25.55;;
13849;SDS011;6995;52.618;13.488;2023-07-13T06:18:52;30.48;;;28.65;;
13849;SDS011;6995;52.618;13.488;2023-07-13T06:21:19;27.23;;;25.45;;
13849;SDS011;6995;52.618;13.488;2023-07-13T06:23:47;28.67;;;26.90;;
13849;SDS011;6995;52.618;13.488;2023-07-13T06:26:14;32.30;;;30.20;;
13849;SDS011;6995;52.618;13.488;2023-07-13T06:28:40;30.65;;;28.80;;
13849;SDS011;6995;52.618;13.488;2023-07-13T06:31:07;22.13;;;20.80;;
13849;SDS011;6995;52.618;13.488;2023-07-13T06:33:33;21.10;;;19.90;;
13849;SDS011;6995;52.618;13.488;2023-07-13T06:36:00;25.75;;;23.92;;
13849;SDS011;6995;52.618;13.488;2023-07-13T06:38:27;23.70;;;22.17;;
13849;SDS011;6995;52.618;13.488;2023-07-13T06:40:53;25.02;;;23.27;;
13849;SDS011;6995;52.618;13.488;2023-07-13T06:43:18;22.85;;;21.65;;
13849;SDS011;6995;52.618;13.488;2023-07-13T06:45:46;23.60;;;21.98;;
13849;SDS011;6995;52.618;13.488;2023-07-13T06:48:14;22.17;;;20.88;;
13849;SDS011;6995;52.618;13.488;2023-07-13T06:50:43;25.02;;;23.30;;
13849;SDS011;6995;52.618;13.488;2023-07-13T06:53:10;22.15;;;21.02;;
13849;SDS011;6995;52.618;13.488;2023-07-13T06:55:36;24.02;;;22.65;;
13849;SDS011;6995;52.618;13.488;2023-07-13T06:58:01;23.48;;;22.08;;
13849;SDS011;6995;52.618;13.488;2023-07-13T07:00:27;26.77;;;24.80;;
13849;SDS011;6995;52.618;13.488;2023-07-13T07:02:54;23.55;;;22.15;;
13849;SDS011;6995;52.618;13.488;2023-07-13T07:05:19;23.13;;;21.83;;
13849;SDS011;6995;52.618;13.488;2023-07-13T07:07:47;21.73;;;20.25;;
13849;SDS011;6995;52.618;13.488;2023-07-13T07:10:13;22.50;;;21.00;;
13849;SDS011;6995;52.618;13.488;2023-07-13T07:12:38;24.48;;;22.90;;
13849;SDS011;6995;52.618;13.488;2023-07-13T07:15:04;23.67;;;22.42;;
13849;SDS011;6995;52.618;13.488;2023-07-13T07:17:30;28.38;;;26.55;;
13849;SDS011;6995;52.618;13.488;2023-07-13T07:19:56;31.13;;;29.35;;
13849;SDS011;6995;52.618;13.488;2023-07-13T07:22:21;26.48;;;24.83;;
13849;SDS011;6995;52.618;13.488;2023-07-13T07:24:47;20.70;;;19.48;;
13849;SDS011;6995;52.618;13.488;2023-07-13T07:27:13;23.05;;;21.63;;
13849;SDS011;6995;52.618;13.488;2023-07-13T07:29:38;20.42;;;19.42;;
13849;SDS011;6995;52.618;13.488;2023-07-13T07:32:04;20.98;;;19.70;;
13849;SDS011;6995;52.618;13.488;2023-07-13T07:34:30;21.10;;;19.77;;
13849;SDS011;6995;52.618;13.488;2023-07-13T07:36:58;20.73;;;19.67;;
13849;SDS011;6995;52.618;13.488;2023-07-13T07:39:28;20.63;;;19.35;;
13849;SDS011;6995;52.618;13.488;2023-07-13T07:41:53;19.88;;;18.90;;
13849;SDS011;6995;52.618;13.488;2023-07-13T07:44:19;19.67;;;18.67;;
13849;SDS011;6995;52.618;13.488;2023-07-13T07:46:47;19.75;;;18.65;;
13849;SDS011;6995;52.618;13.488;2023-07-13T07:49:13;21.92;;;20.83;;
13849;SDS011;6995;52.618;13.488;2023-07-13T07:51:39;23.42;;;22.23;;
13849;SDS011;6995;52.618;13.488;2023-07-13T07:54:04;23.30;;;21.92;;
13849;SDS011;6995;52.618;13.488;2023-07-13T07:56:31;20.75;;;19.63;;
13849;SDS011;6995;52.618;13.488;2023-07-13T07:59:03;21.05;;;19.95;;
13849;SDS011;6995;52.618;13.488;2023-07-13T08:01:29;21.77;;;20.45;;
13849;SDS011;6995;52.618;13.488;2023-07-13T08:03:54;23.23;;;21.67;;
13849;SDS011;6995;52.618;13.488;2023-07-13T08:06:20;23.00;;;21.70;;
13849;SDS011;6995;52.618;13.488;2023-07-13T08:08:47;21.88;;;20.05;;
13849;SDS011;6995;52.618;13.488;2023-07-13T08:11:12;22.58;;;21.27;;
13849;SDS011;6995;52.618;13.488;2023-07-13T08:13:38;21.48;;;20.17;;
13849;SDS011;6995;52.618;13.488;2023-07-13T08:16:04;18.65;;;17.75;;
13849;SDS011;6995;52.618;13.488;2023-07-13T08:18:31;23.63;;;22.45;;
13849;SDS011;6995;52.618;13.488;2023-07-13T08:20:56;26.92;;;25.00;;
13849;SDS011;6995;52.618;13.488;2023-07-13T08:23:23;27.98;;;26.50;;
13849;SDS011;6995;52.618;13.488;2023-07-13T08:25:52;24.52;;;22.85;;
13849;SDS011;6995;52.618;13.488;2023-07-13T08:28:19;22.65;;;21.45;;
13849;SDS011;6995;52.618;13.488;2023-07-13T08:30:48;20.63;;;19.50;;
13849;SDS011;6995;52.618;13.488;2023-07-13T08:33:23;20.83;;;19.63;;
13849;SDS011;6995;52.618;13.488;2023-07-13T08:35:51;28.80;;;27.17;;
13849;SDS011;6995;52.618;13.488;2023-07-13T08:38:20;25.67;;;24.17;;
13849;SDS011;6995;52.618;13.488;2023-07-13T08:40:49;27.65;;;26.02;;
13849;SDS011;6995;52.618;13.488;2023-07-13T08:43:26;20.88;;;19.73;;
13849;SDS011;6995;52.618;13.488;2023-07-13T08:45:57;22.73;;;21.40;;
13849;SDS011;6995;52.618;13.488;2023-07-13T08:48:35;21.38;;;19.98;;
13849;SDS011;6995;52.618;13.488;2023-07-13T08:54:17;20.92;;;19.83;;
13849;SDS011;6995;52.618;13.488;2023-07-13T08:56:52;22.10;;;20.90;;
13849;SDS011;6995;52.618;13.488;2023-07-13T08:59:22;19.05;;;17.85;;
13849;SDS011;6995;52.618;13.488;2023-07-13T09:04:45;20.73;;;19.40;;
13849;SDS011;6995;52.618;13.488;2023-07-13T09:10:08;20.38;;;19.38;;
13849;SDS011;6995;52.618;13.488;2023-07-13T09:18:11;22.55;;;21.25;;
13849;SDS011;6995;52.618;13.488;2023-07-13T09:23:45;19.77;;;18.67;;
13849;SDS011;6995;52.618;13.488;2023-07-13T09:26:14;22.10;;;20.63;;
13849;SDS011;6995;52.618;13.488;2023-07-13T09:28:45;21.70;;;20.40;;
13849;SDS011;6995;52.618;13.488;2023-07-13T09:31:20;22.02;;;20.75;;
13849;SDS011;6995;52.618;13.488;2023-07-13T09:33:51;25.35;;;23.83;;
13849;SDS011;6995;52.618;13.488;2023-07-13T09:36:25;29.65;;;27.77;;
13849;SDS011;6995;52.618;13.488;2023-07-13T09:39:02;26.52;;;24.85;;
13849;SDS011;6995;52.618;13.488;2023-07-13T09:41:49;22.70;;;21.10;;
13849;SDS011;6995;52.618;13.488;2023-07-13T09:44:29;26.77;;;25.42;;
13849;SDS011;6995;52.618;13.488;2023-07-13T09:46:57;19.08;;;18.05;;
13849;SDS011;6995;52.618;13.488;2023-07-13T09:49:24;19.13;;;18.02;;
13849;SDS011;6995;52.618;13.488;2023-07-13T09:52:00;18.50;;;17.33;;
13849;SDS011;6995;52.618;13.488;2023-07-13T09:54:28;18.27;;;16.98;;
13849;SDS011;6995;52.618;13.488;2023-07-13T09:56:58;23.02;;;21.58;;
13849;SDS011;6995;52.618;13.488;2023-07-13T09:59:32;21.15;;;19.70;;
13849;SDS011;6995;52.618;13.488;2023-07-13T10:01:59;18.75;;;17.65;;
13849;SDS011;6995;52.618;13.488;2023-07-13T10:04:33;22.60;;;21.35;;
13849;SDS011;6995;52.618;13.488;2023-07-13T10:07:06;26.20;;;24.52;;
13849;SDS011;6995;52.618;13.488;2023-07-13T10:09:33;26.73;;;25.50;;
13849;SDS011;6995;52.618;13.488;2023-07-13T10:11:59;27.63;;;26.05;;
13849;SDS011;6995;52.618;13.488;2023-07-13T10:14:25;25.73;;;24.33;;
13849;SDS011;6995;52.618;13.488;2023-07-13T10:19:32;32.13;;;30.17;;
13849;SDS011;6995;52.618;13.488;2023-07-13T10:22:01;22.23;;;21.13;;
13849;SDS011;6995;52.618;13.488;2023-07-13T10:24:35;21.27;;;20.10;;
13849;SDS011;6995;52.618;13.488;2023-07-13T10:32:35;26.20;;;24.88;;
13849;SDS011;6995;52.618;13.488;2023-07-13T10:35:01;26.77;;;25.27;;
13849;SDS011;6995;52.618;13.488;2023-07-13T10:37:33;23.63;;;22.33;;
13849;SDS011;6995;52.618;13.488;2023-07-13T10:40:14;26.55;;;24.92;;
13849;SDS011;6995;52.618;13.488;2023-07-13T10:42:49;30.50;;;29.00;;
13849;SDS011;6995;52.618;13.488;2023-07-13T10:45:18;32.60;;;30.40;;
13849;SDS011;6995;52.618;13.488;2023-07-13T10:47:46;29.33;;;27.73;;
13849;SDS011;6995;52.618;13.488;2023-07-13T10:50:19;26.80;;;25.02;;
13849;SDS011;6995;52.618;13.488;2023-07-13T10:52:47;29.13;;;27.63;;
13849;SDS011;6995;52.618;13.488;2023-07-13T10:58:46;28.35;;;26.65;;
13849;SDS011;6995;52.618;13.488;2023-07-13T11:00:49;23.27;;;21.55;;
13849;SDS011;6995;52.618;13.488;2023-07-13T11:03:28;25.08;;;23.52;;
13849;SDS011;6995;52.618;13.488;2023-07-13T11:09:36;25.88;;;24.50;;
13849;SDS011;6995;52.618;13.488;2023-07-13T11:11:58;27.27;;;25.83;;
13849;SDS011;6995;52.618;13.488;2023-07-13T11:16:56;24.65;;;23.45;;
13849;SDS011;6995;52.618;13.488;2023-07-13T11:27:21;29.25;;;27.55;;
13849;SDS011;6995;52.618;13.488;2023-07-13T11:29:47;28.90;;;27.05;;
13849;SDS011;6995;52.618;13.488;2023-07-13T11:32:32;22.80;;;21.33;;
13849;SDS011;6995;52.618;13.488;2023-07-13T11:34:58;23.42;;;22.10;;
13849;SDS011;6995;52.618;13.488;2023-07-13T11:37:24;23.08;;;21.48;;
13849;SDS011;6995;52.618;13.488;2023-07-13T11:39:51;29.63;;;28.00;;
13849;SDS011;6995;52.618;13.488;2023-07-13T11:42:18;28.88;;;27.23;;
13849;SDS011;6995;52.618;13.488;2023-07-13T11:44:46;28.85;;;27.33;;
13849;SDS011;6995;52.618;13.488;2023-07-13T11:47:17;30.50;;;28.73;;
13849;SDS011;6995;52.618;13.488;2023-07-13T11:49:54;19.58;;;18.48;;
13849;SDS011;6995;52.618;13.488;2023-07-13T11:52:35;25.25;;;23.90;;
13849;SDS011;6995;52.618;13.488;2023-07-13T11:55:03;25.90;;;24.30;;
13849;SDS011;6995;52.618;13.488;2023-07-13T11:57:40;22.48;;;21.17;;
13849;SDS011;6995;52.618;13.488;2023-07-13T12:00:12;22.10;;;20.67;;
13849;SDS011;6995;52.618;13.488;2023-07-13T12:02:43;20.48;;;19.25;;
13849;SDS011;6995;52.618;13.488;2023-07-13T12:05:13;21.48;;;20.17;;
13849;SDS011;6995;52.618;13.488;2023-07-13T12:07:42;19.25;;;18.05;;
13849;SDS011;6995;52.618;13.488;2023-07-13T12:12:40;19.98;;;18.70;;
13849;SDS011;6995;52.618;13.488;2023-07-13T12:15:12;25.42;;;23.83;;
13849;SDS011;6995;52.618;13.488;2023-07-13T12:17:37;28.92;;;27.38;;
13849;SDS011;6995;52.618;13.488;2023-07-13T12:20:07;29.88;;;28.35;;
13849;SDS011;6995;52.618;13.488;2023-07-13T12:22:49;26.23;;;24.80;;
13849;SDS011;6995;52.618;13.488;2023-07-13T12:25:15;29.20;;;27.42;;
13849;SDS011;6995;52.618;13.488;2023-07-13T12:27:42;23.52;;;22.33;;
13849;SDS011;6995;52.618;13.488;2023-07-13T12:33:08;22.50;;;21.27;;
13849;SDS011;6995;52.618;13.488;2023-07-13T12:35:41;27.17;;;25.02;;
13849;SDS011;6995;52.618;13.488;2023-07-13T12:38:11;20.15;;;18.88;;
13849;SDS011;6995;52.618;13.488;2023-07-13T12:40:37;19.65;;;18.20;;
13849;SDS011;6995;52.618;13.488;2023-07-13T12:43:16;27.33;;;25.80;;
13849;SDS011;6995;52.618;13.488;2023-07-13T12:48:27;21.25;;;19.85;;
13849;SDS011;6995;52.618;13.488;2023-07-13T12:50:53;20.42;;;19.20;;
13849;SDS011;6995;52.618;13.488;2023-07-13T12:53:23;16.85;;;15.73;;
13849;SDS011;6995;52.618;13.488;2023-07-13T12:55:56;18.27;;;17.08;;
13849;SDS011;6995;52.618;13.488;2023-07-13T12:58:38;18.35;;;17.13;;
13849;SDS011;6995;52.618;13.488;2023-07-13T13:01:11;20.10;;;18.77;;
13849;SDS011;6995;52.618;13.488;2023-07-13T13:03:39;25.50;;;24.08;;
13849;SDS011;6995;52.618;13.488;2023-07-13T13:08:49;23.73;;;22.23;;
13849;SDS011;6995;52.618;13.488;2023-07-13T13:11:17;20.45;;;19.35;;
13849;SDS011;6995;52.618;13.488;2023-07-13T13:13:44;19.42;;;18.10;;
13849;SDS011;6995;52.618;13.488;2023-07-13T13:16:11;21.13;;;19.92;;
13849;SDS011;6995;52.618;13.488;2023-07-13T13:18:43;18.52;;;17.08;;
13849;SDS011;6995;52.618;13.488;2023-07-13T13:21:12;20.73;;;19.20;;
13849;SDS011;6995;52.618;13.488;2023-07-13T13:23:37;19.55;;;18.08;;
13849;SDS011;6995;52.618;13.488;2023-07-13T13:26:04;17.35;;;16.23;;
13849;SDS011;6995;52.618;13.488;2023-07-13T13:28:34;19.52;;;17.90;;
13849;SDS011;6995;52.618;13.488;2023-07-13T13:31:00;24.27;;;22.92;;
13849;SDS011;6995;52.618;13.488;2023-07-13T13:33:25;18.88;;;17.77;;
13849;SDS011;6995;52.618;13.488;2023-07-13T13:35:51;20.33;;;19.02;;
13849;SDS011;6995;52.618;13.488;2023-07-13T13:38:17;17.10;;;16.20;;
13849;SDS011;6995;52.618;13.488;2023-07-13T13:40:51;21.30;;;19.88;;
13849;SDS011;6995;52.618;13.488;2023-07-13T13:43:24;23.02;;;21.25;;
13849;SDS011;6995;52.618;13.488;2023-07-13T13:45:55;20.58;;;19.27;;
13849;SDS011;6995;52.618;13.488;2023-07-13T13:48:38;20.40;;;19.00;;
13849;SDS011;6995;52.618;13.488;2023-07-13T13:51:39;20.60;;;19.25;;
13849;SDS011;6995;52.618;13.488;2023-07-13T13:53:57;31.75;;;29.95;;
13849;SDS011;6995;52.618;13.488;2023-07-13T13:56:23;34.28;;;32.20;;
13849;SDS011;6995;52.618;13.488;2023-07-13T13:58:49;22.42;;;20.85;;
13849;SDS011;6995;52.618;13.488;2023-07-13T14:01:19;21.50;;;19.75;;
13849;SDS011;6995;52.618;13.488;2023-07-13T14:03:49;18.48;;;17.27;;
13849;SDS011;6995;52.618;13.488;2023-07-13T14:06:16;20.80;;;19.50;;
13849;SDS011;6995;52.618;13.488;2023-07-13T14:08:42;19.88;;;18.67;;
13849;SDS011;6995;52.618;13.488;2023-07-13T14:11:12;20.23;;;19.05;;
13849;SDS011;6995;52.618;13.488;2023-07-13T14:13:45;19.58;;;18.38;;
13849;SDS011;6995;52.618;13.488;2023-07-13T14:16:32;18.42;;;17.33;;
13849;SDS011;6995;52.618;13.488;2023-07-13T14:18:58;19.85;;;18.63;;
13849;SDS011;6995;52.618;13.488;2023-07-13T14:21:26;18.02;;;16.95;;
13849;SDS011;6995;52.618;13.488;2023-07-13T14:23:53;17.83;;;16.75;;
13849;SDS011;6995;52.618;13.488;2023-07-13T14:26:20;16.95;;;15.85;;
13849;SDS011;6995;52.618;13.488;2023-07-13T14:28:48;20.15;;;18.90;;
13849;SDS011;6995;52.618;13.488;2023-07-13T14:31:23;20.20;;;19.02;;
13849;SDS011;6995;52.618;13.488;2023-07-13T14:33:51;17.92;;;16.55;;
13849;SDS011;6995;52.618;13.488;2023-07-13T14:36:25;20.33;;;19.17;;
13849;SDS011;6995;52.618;13.488;2023-07-13T14:38:57;17.25;;;16.35;;
13849;SDS011;6995;52.618;13.488;2023-07-13T14:41:23;18.17;;;17.08;;
13849;SDS011;6995;52.618;13.488;2023-07-13T14:43:49;17.73;;;16.63;;
13849;SDS011;6995;52.618;13.488;2023-07-13T14:46:22;21.55;;;20.25;;
13849;SDS011;6995;52.618;13.488;2023-07-13T14:48:53;19.80;;;18.73;;
13849;SDS011;6995;52.618;13.488;2023-07-13T14:51:31;17.60;;;16.75;;
13849;SDS011;6995;52.618;13.488;2023-07-13T14:53:58;17.50;;;16.35;;
13849;SDS011;6995;52.618;13.488;2023-07-13T14:56:27;17.45;;;16.38;;
13849;SDS011;6995;52.618;13.488;2023-07-13T14:58:52;18.10;;;17.10;;
13849;SDS011;6995;52.618;13.488;2023-07-13T15:01:18;20.13;;;18.85;;
13849;SDS011;6995;52.618;13.488;2023-07-13T15:03:49;18.08;;;17.08;;
13849;SDS011;6995;52.618;13.488;2023-07-13T15:06:17;17.77;;;16.58;;
13849;SDS011;6995;52.618;13.488;2023-07-13T15:08:45;18.70;;;17.60;;
13849;SDS011;6995;52.618;13.488;2023-07-13T15:11:11;16.98;;;15.98;;
13849;SDS011;6995;52.618;13.488;2023-07-13T15:13:38;22.17;;;20.63;;
13849;SDS011;6995;52.618;13.488;2023-07-13T15:16:05;17.25;;;16.05;;
13849;SDS011;6995;52.618;13.488;2023-07-13T15:18:39;20.35;;;19.15;;
13849;SDS011;6995;52.618;13.488;2023-07-13T15:21:08;19.23;;;18.13;;
13849;SDS011;6995;52.618;13.488;2023-07-13T15:23:38;16.10;;;15.32;;